createdAt,value
2019-02-25T00:00:17.289Z,1.20
2019-02-25T00:02:46.306Z,1.10
2019-02-25T00:05:14.593Z,1.10
2019-02-25T00:07:43.542Z,1.10
2019-02-25T00:10:12.349Z,1.17
2019-02-25T00:12:40.602Z,0.83
2019-02-25T00:29:16.610Z,1.03
2019-02-25T00:31:44.843Z,1.30
2019-02-25T00:34:13.085Z,1.33
2019-02-25T00:36:41.321Z,1.40
2019-02-25T00:39:09.729Z,1.00
2019-02-25T00:41:38.533Z,1.20
2019-02-25T00:44:06.781Z,1.13
2019-02-25T00:46:35.017Z,1.20
2019-02-25T00:49:03.259Z,1.13
2019-02-25T00:51:31.490Z,1.40
2019-02-25T00:54:14.770Z,1.20
2019-02-25T00:56:43.010Z,1.30
2019-02-25T00:59:11.526Z,0.83
2019-02-25T01:01:39.766Z,1.37
2019-02-25T01:04:08.008Z,1.10
2019-02-25T01:06:36.238Z,1.03
2019-02-25T01:09:05.549Z,1.30
2019-02-25T01:11:33.995Z,1.10
2019-02-25T01:14:02.234Z,1.30
2019-02-25T01:16:30.469Z,1.23
2019-02-25T01:18:58.705Z,1.40
2019-02-25T01:21:26.941Z,1.13
2019-02-25T01:23:55.189Z,1.33
2019-02-25T01:26:23.422Z,1.27
2019-02-25T01:28:51.665Z,1.30
2019-02-25T01:31:19.897Z,1.20
2019-02-25T01:33:48.137Z,1.30
2019-02-25T01:36:16.369Z,1.30
2019-02-25T01:38:44.614Z,1.20
2019-02-25T01:41:12.846Z,1.20
2019-02-25T01:43:41.097Z,1.40
2019-02-25T01:46:09.332Z,1.30
2019-02-25T01:48:37.558Z,1.30
2019-02-25T01:51:05.822Z,1.50
2019-02-25T01:53:34.049Z,1.20
2019-02-25T01:56:02.298Z,1.10
2019-02-25T01:58:30.897Z,1.20
2019-02-25T02:00:59.141Z,1.20
2019-02-25T02:03:27.373Z,1.30
2019-02-25T02:05:55.633Z,1.17
2019-02-25T02:08:23.863Z,1.30
2019-02-25T02:10:52.101Z,1.37
2019-02-25T02:13:20.333Z,1.17
2019-02-25T02:15:48.583Z,1.30
2019-02-25T02:18:16.885Z,1.30
2019-02-25T02:20:45.130Z,1.20
2019-02-25T02:23:13.361Z,1.10
2019-02-25T02:25:41.606Z,1.30
2019-02-25T02:28:09.842Z,1.37
2019-02-25T02:30:38.086Z,1.60
2019-02-25T02:33:06.318Z,0.93
2019-02-25T02:35:34.562Z,1.20
2019-02-25T02:38:02.793Z,1.00
2019-02-25T02:40:31.042Z,1.20
2019-02-25T02:43:00.318Z,1.37
2019-02-25T02:45:37.677Z,1.20
2019-02-25T02:48:09.129Z,1.10
2019-02-25T02:50:37.353Z,1.40
2019-02-25T02:53:05.590Z,1.07
2019-02-25T02:55:33.838Z,1.10
2019-02-25T02:58:02.069Z,1.10
2019-02-25T03:00:30.314Z,1.10
2019-02-25T03:02:58.550Z,1.17
2019-02-25T03:05:26.793Z,1.20
2019-02-25T03:07:55.037Z,1.20
2019-02-25T03:10:23.270Z,1.30
2019-02-25T03:12:51.518Z,1.50
2019-02-25T03:15:21.290Z,1.00
2019-02-25T03:17:50.110Z,1.30
2019-02-25T03:20:18.356Z,1.20
2019-02-25T03:22:46.863Z,1.17
2019-02-25T03:25:16.531Z,1.30
2019-02-25T03:27:44.770Z,1.20
2019-02-25T03:30:17.983Z,1.43
2019-02-25T03:32:46.252Z,1.20
2019-02-25T03:35:14.592Z,1.10
2019-02-25T03:37:43.199Z,1.40
2019-02-25T03:40:21.518Z,1.20
2019-02-25T03:42:49.771Z,1.13
2019-02-25T03:45:18.997Z,1.30
2019-02-25T03:47:47.255Z,1.30
2019-02-25T03:50:15.482Z,1.30
2019-02-25T03:52:43.721Z,1.10
2019-02-25T03:55:13.897Z,1.20
2019-02-25T03:57:42.144Z,1.40
2019-02-25T04:00:15.818Z,1.13
2019-02-25T04:02:44.057Z,1.10
2019-02-25T04:05:12.291Z,1.37
2019-02-25T04:07:40.542Z,1.20
2019-02-25T04:10:13.353Z,1.10
2019-02-25T04:12:41.666Z,1.20
2019-02-25T04:15:18.854Z,1.20
2019-02-25T04:17:47.104Z,1.20
2019-02-25T04:20:16.570Z,1.20
2019-02-25T04:22:44.814Z,1.23
2019-02-25T04:25:13.049Z,1.10
2019-02-25T04:27:41.301Z,1.20
2019-02-25T04:30:14.595Z,1.20
2019-02-25T04:32:42.842Z,1.30
2019-02-25T04:35:12.286Z,1.23
2019-02-25T04:37:40.526Z,1.20
2019-02-25T04:40:10.998Z,1.10
2019-02-25T04:42:39.241Z,1.30
2019-02-25T04:45:21.133Z,1.13
2019-02-25T04:47:49.379Z,1.10
2019-02-25T04:50:17.611Z,1.10
2019-02-25T04:52:45.855Z,1.03
2019-02-25T04:55:14.926Z,1.17
2019-02-25T04:57:43.173Z,1.10
2019-02-25T05:00:20.135Z,1.20
2019-02-25T05:02:48.413Z,1.20
2019-02-25T05:05:16.645Z,1.00
2019-02-25T05:07:44.892Z,1.20
2019-02-25T05:10:17.390Z,1.20
2019-02-25T05:12:56.425Z,1.20
2019-02-25T05:15:26.299Z,1.10
2019-02-25T05:17:54.546Z,1.40
2019-02-25T05:20:22.850Z,1.37
2019-02-25T05:22:51.103Z,1.10
2019-02-25T05:25:19.590Z,1.27
2019-02-25T05:27:47.817Z,1.17
2019-02-25T05:30:16.701Z,1.20
2019-02-25T05:32:44.930Z,1.20
2019-02-25T05:35:13.641Z,1.17
2019-02-25T05:37:41.870Z,1.23
2019-02-25T05:40:17.189Z,1.20
2019-02-25T05:42:45.539Z,1.17
2019-02-25T05:45:14.635Z,1.20
2019-02-25T05:47:42.866Z,1.27
2019-02-25T05:50:15.190Z,1.10
2019-02-25T05:52:43.431Z,1.00
2019-02-25T05:55:13.433Z,1.27
2019-02-25T05:57:41.656Z,1.30
2019-02-25T06:00:25.024Z,1.10
2019-02-25T06:02:53.255Z,1.30
2019-02-25T06:05:21.501Z,1.10
2019-02-25T06:07:49.730Z,1.40
2019-02-25T06:10:17.972Z,0.93
2019-02-25T06:12:46.202Z,1.37
2019-02-25T06:15:19.736Z,1.40
2019-02-25T06:17:47.969Z,1.30
2019-02-25T06:20:16.960Z,1.20
2019-02-25T06:22:45.261Z,1.30
2019-02-25T06:25:15.643Z,1.00
2019-02-25T06:27:43.915Z,1.20
2019-02-25T06:30:20.610Z,1.20
2019-02-25T06:32:48.833Z,1.23
2019-02-25T06:35:17.088Z,1.10
2019-02-25T06:37:45.324Z,1.20
2019-02-25T06:40:16.348Z,1.40
2019-02-25T06:42:44.684Z,1.40
2019-02-25T06:45:21.471Z,1.00
2019-02-25T06:47:49.711Z,1.20
2019-02-25T06:50:17.953Z,1.00
2019-02-25T06:52:46.201Z,1.20
2019-02-25T06:55:15.777Z,1.33
2019-02-25T06:57:44.010Z,1.30
2019-02-25T07:00:17.555Z,1.10
2019-02-25T07:02:45.807Z,1.10
2019-02-25T07:05:31.074Z,1.07
2019-02-25T07:08:00.958Z,1.40
2019-02-25T07:10:30.830Z,1.10
2019-02-25T07:13:00.716Z,1.10
2019-02-25T07:15:48.709Z,1.27
2019-02-25T07:18:34.891Z,1.10
2019-02-25T07:21:04.770Z,1.10
2019-02-25T07:23:34.655Z,1.10
2019-02-25T07:26:19.923Z,1.20
2019-02-25T07:28:52.769Z,1.00
2019-02-25T07:31:37.996Z,1.10
2019-02-25T07:34:07.883Z,1.20
2019-02-25T07:36:54.337Z,1.17
2019-02-25T07:39:24.198Z,1.07
2019-02-25T07:41:55.714Z,1.10
2019-02-25T07:44:45.553Z,0.87
2019-02-25T07:47:15.438Z,1.20
2019-02-25T07:50:00.333Z,0.90
2019-02-25T07:52:33.062Z,1.23
2019-02-25T07:55:02.929Z,1.30
2019-02-25T07:57:38.550Z,1.33
2019-02-25T08:00:15.398Z,1.40
2019-02-25T08:02:45.290Z,1.23
2019-02-25T08:05:18.159Z,1.40
2019-02-25T08:07:48.037Z,1.20
2019-02-25T08:10:20.618Z,1.27
2019-02-25T08:13:07.238Z,1.20
2019-02-25T08:15:48.093Z,1.13
2019-02-25T08:18:21.120Z,1.20
2019-02-25T08:20:51.066Z,1.47
2019-02-25T08:23:29.702Z,1.10
2019-02-25T08:26:11.805Z,1.10
2019-02-25T08:28:41.689Z,1.30
2019-02-25T08:31:11.558Z,1.17
2019-02-25T08:33:43.069Z,1.40
2019-02-25T08:36:24.769Z,1.20
2019-02-25T08:39:00.673Z,1.13
2019-02-25T08:41:33.301Z,1.23
2019-02-25T08:44:09.162Z,1.00
2019-02-25T08:46:52.688Z,1.37
2019-02-25T08:49:25.616Z,1.07
2019-02-25T08:51:55.469Z,1.27
2019-02-25T08:54:23.715Z,1.20
2019-02-25T08:56:51.949Z,1.03
2019-02-25T08:59:20.196Z,1.20
2019-02-25T09:01:48.426Z,1.10
2019-02-25T09:04:16.669Z,1.17
2019-02-25T09:06:44.969Z,1.00
2019-02-25T09:09:13.218Z,1.00
2019-02-25T09:11:43.078Z,1.20
2019-02-25T09:14:13.674Z,1.30
2019-02-25T09:16:41.906Z,1.30
2019-02-25T09:19:10.153Z,1.20
2019-02-25T09:21:38.386Z,1.23
2019-02-25T09:24:06.622Z,1.23
2019-02-25T09:26:34.862Z,1.10
2019-02-25T09:29:03.094Z,1.00
2019-02-25T09:31:31.339Z,1.10
2019-02-25T09:33:59.569Z,1.17
2019-02-25T09:36:29.445Z,1.20
2019-02-25T09:38:57.750Z,1.37
2019-02-25T09:41:29.892Z,1.30
2019-02-25T09:43:57.648Z,1.00
2019-02-25T09:46:25.894Z,0.90
2019-02-25T09:48:54.132Z,1.07
2019-02-25T09:51:22.376Z,1.23
2019-02-25T09:53:50.605Z,1.20
2019-02-25T09:56:18.850Z,1.00
2019-02-25T09:58:47.083Z,1.10
2019-02-25T10:01:15.334Z,1.17
2019-02-25T10:03:43.570Z,1.13
2019-02-25T10:06:12.948Z,1.37
2019-02-25T10:08:41.422Z,1.20
2019-02-25T10:11:09.670Z,1.10
2019-02-25T10:13:38.235Z,1.17
2019-02-25T10:16:06.478Z,1.30
2019-02-25T10:18:34.718Z,1.10
2019-02-25T10:21:02.961Z,1.00
2019-02-25T10:23:31.201Z,1.00
2019-02-25T10:25:59.441Z,1.17
2019-02-25T10:28:27.678Z,1.00
2019-02-25T10:30:55.922Z,1.20
2019-02-25T10:33:24.149Z,1.17
2019-02-25T10:35:52.410Z,1.00
2019-02-25T10:38:21.605Z,1.00
2019-02-25T10:40:52.154Z,1.00
2019-02-25T10:43:20.053Z,1.10
2019-02-25T10:45:48.310Z,1.13
2019-02-25T10:48:17.707Z,1.20
2019-02-25T10:50:55.753Z,1.20
2019-02-25T10:53:19.856Z,1.13
2019-02-25T10:56:16.738Z,1.10
2019-02-25T10:58:45.694Z,1.10
2019-02-25T11:01:17.574Z,1.10
2019-02-25T11:03:45.476Z,1.00
2019-02-25T11:06:15.502Z,1.07
2019-02-25T11:08:45.771Z,1.20
2019-02-25T11:11:16.307Z,1.03
2019-02-25T11:13:45.754Z,1.20
2019-02-25T11:16:15.664Z,1.03
2019-02-25T11:18:43.963Z,0.97
2019-02-25T11:21:12.193Z,1.10
2019-02-25T11:23:40.733Z,1.40
2019-02-25T11:26:10.594Z,0.93
2019-02-25T11:28:41.046Z,1.20
2019-02-25T11:31:09.186Z,1.10
2019-02-25T11:33:37.430Z,1.20
2019-02-25T11:36:05.667Z,0.80
2019-02-25T11:38:36.756Z,1.00
2019-02-25T11:41:06.377Z,1.10
2019-02-25T11:43:33.863Z,1.10
2019-02-25T11:46:02.715Z,1.00
2019-02-25T11:48:32.646Z,1.00
2019-02-25T11:51:02.629Z,1.00
2019-02-25T11:53:30.871Z,1.03
2019-02-25T11:55:59.103Z,0.97
2019-02-25T11:58:27.412Z,1.10
2019-02-25T12:00:55.654Z,1.00
2019-02-25T12:03:23.893Z,1.10
2019-02-25T12:05:52.655Z,1.10
2019-02-25T12:08:20.946Z,1.10
2019-02-25T12:10:49.182Z,0.90
2019-02-25T12:13:17.505Z,1.00
2019-02-25T12:15:45.730Z,1.00
2019-02-25T12:18:13.974Z,1.03
2019-02-25T12:20:42.373Z,0.83
2019-02-25T12:23:10.704Z,1.20
2019-02-25T12:25:38.933Z,0.90
2019-02-25T12:28:07.174Z,1.10
2019-02-25T12:30:35.477Z,1.10
2019-02-25T12:33:03.725Z,0.93
2019-02-25T12:35:31.959Z,1.17
2019-02-25T12:38:00.197Z,1.10
2019-02-25T12:40:28.430Z,1.00
2019-02-25T12:42:56.665Z,0.90
2019-02-25T12:45:24.905Z,1.20
2019-02-25T12:47:53.147Z,1.10
2019-02-25T12:50:21.386Z,1.10
2019-02-25T12:52:49.631Z,0.97
2019-02-25T12:55:18.805Z,0.80
2019-02-25T12:57:47.033Z,0.90
2019-02-25T13:00:22.441Z,1.10
2019-02-25T13:02:50.837Z,1.07
2019-02-25T13:05:22.382Z,1.13
2019-02-25T13:07:50.613Z,0.80
2019-02-25T13:10:19.072Z,1.07
2019-02-25T13:12:47.333Z,1.00
2019-02-25T13:15:16.813Z,1.10
2019-02-25T13:17:45.045Z,1.00
2019-02-25T13:20:14.225Z,0.90
2019-02-25T13:22:42.456Z,0.97
2019-02-25T13:25:18.861Z,0.97
2019-02-25T13:27:47.166Z,0.90
2019-02-25T13:30:16.533Z,0.87
2019-02-25T13:32:44.842Z,0.83
2019-02-25T13:35:17.960Z,1.00
2019-02-25T13:37:46.256Z,0.90
2019-02-25T13:40:18.025Z,0.90
2019-02-25T13:42:46.337Z,0.80
2019-02-25T13:45:20.035Z,1.20
2019-02-25T13:47:48.342Z,1.00
2019-02-25T13:50:17.349Z,1.07
2019-02-25T13:53:00.690Z,1.07
2019-02-25T13:55:17.074Z,1.10
2019-02-25T13:57:45.381Z,1.20
2019-02-25T14:00:24.590Z,0.80
2019-02-25T14:02:52.901Z,1.00
2019-02-25T14:05:21.290Z,1.00
2019-02-25T14:07:49.522Z,1.03
2019-02-25T14:10:18.481Z,1.03
2019-02-25T14:12:46.713Z,0.97
2019-02-25T14:15:19.755Z,0.93
2019-02-25T14:17:47.982Z,0.90
2019-02-25T14:20:18.620Z,0.80
2019-02-25T14:22:46.861Z,1.00
2019-02-25T14:25:20.980Z,0.90
2019-02-25T14:27:49.289Z,0.90
2019-02-25T14:30:22.522Z,0.73
2019-02-25T14:32:53.379Z,1.00
2019-02-25T14:35:29.423Z,1.07
2019-02-25T14:38:04.253Z,0.97
2019-02-25T14:40:31.532Z,0.80
2019-02-25T14:42:59.982Z,0.80
2019-02-25T14:45:29.547Z,0.77
2019-02-25T14:48:00.008Z,1.00
2019-02-25T14:50:28.702Z,1.10
2019-02-25T14:52:56.945Z,0.80
2019-02-25T14:55:25.560Z,1.00
2019-02-25T14:57:55.123Z,0.97
2019-02-25T15:00:28.381Z,0.97
2019-02-25T15:02:56.024Z,1.00
2019-02-25T15:05:24.499Z,0.90
2019-02-25T15:07:53.386Z,1.00
2019-02-25T15:10:26.751Z,0.87
2019-02-25T15:12:56.513Z,1.00
2019-02-25T15:15:23.093Z,0.83
2019-02-25T15:17:52.723Z,1.00
2019-02-25T15:20:23.618Z,0.90
2019-02-25T15:22:52.830Z,0.90
2019-02-25T15:25:21.410Z,1.00
2019-02-25T15:27:49.792Z,1.00
2019-02-25T15:30:25.635Z,1.10
2019-02-25T15:32:56.271Z,1.10
2019-02-25T15:35:26.549Z,0.70
2019-02-25T15:37:55.314Z,0.90
2019-02-25T15:40:25.082Z,0.90
2019-02-25T15:43:01.593Z,0.90
2019-02-25T15:45:32.884Z,0.70
2019-02-25T15:48:01.670Z,0.73
2019-02-25T15:50:30.045Z,0.90
2019-02-25T15:53:00.763Z,0.90
2019-02-25T15:55:28.255Z,0.80
2019-02-25T15:57:56.650Z,0.93
2019-02-25T16:00:27.625Z,0.90
2019-02-25T16:02:57.159Z,1.00
2019-02-25T16:05:27.331Z,1.00
2019-02-25T16:07:59.668Z,0.87
2019-02-25T16:10:27.734Z,0.90
2019-02-25T16:12:57.842Z,0.70
2019-02-25T16:15:26.402Z,0.90
2019-02-25T16:17:54.723Z,0.90
2019-02-25T16:20:23.792Z,1.00
2019-02-25T16:22:52.120Z,0.77
2019-02-25T16:25:25.241Z,0.90
2019-02-25T16:27:54.244Z,0.90
2019-02-25T16:30:23.649Z,1.00
2019-02-25T16:32:52.660Z,0.90
2019-02-25T16:35:21.163Z,0.77
2019-02-25T16:37:50.823Z,0.80
2019-02-25T16:40:20.290Z,1.00
2019-02-25T16:42:50.263Z,0.80
2019-02-25T16:45:22.817Z,0.90
2019-02-25T16:47:51.045Z,1.13
2019-02-25T16:50:20.935Z,0.90
2019-02-25T16:52:49.652Z,0.80
2019-02-25T16:55:27.373Z,0.90
2019-02-25T16:57:55.022Z,0.90
2019-02-25T17:00:29.614Z,1.03
2019-02-25T17:02:59.287Z,1.00
2019-02-25T17:05:25.934Z,1.00
2019-02-25T17:07:56.150Z,0.80
2019-02-25T17:10:28.461Z,0.70
2019-02-25T17:12:55.522Z,0.90
2019-02-25T17:15:26.296Z,0.83
2019-02-25T17:17:53.967Z,0.93
2019-02-25T17:20:22.753Z,0.90
2019-02-25T17:22:51.654Z,0.77
2019-02-25T17:25:19.902Z,0.77
2019-02-25T17:27:48.205Z,0.80
2019-02-25T17:30:21.962Z,0.90
2019-02-25T17:32:51.814Z,0.80
2019-02-25T17:35:23.458Z,0.87
2019-02-25T17:37:53.109Z,0.97
2019-02-25T17:40:21.294Z,0.90
2019-02-25T17:42:52.184Z,0.87
2019-02-25T17:45:27.713Z,0.70
2019-02-25T17:47:58.282Z,0.90
2019-02-25T17:50:27.685Z,0.70
2019-02-25T17:52:55.998Z,0.90
2019-02-25T17:55:27.255Z,0.80
2019-02-25T17:57:56.979Z,0.90
2019-02-25T18:00:42.566Z,0.70
2019-02-25T18:03:10.962Z,0.63
2019-02-25T18:05:40.762Z,0.83
2019-02-25T18:08:13.263Z,0.80
2019-02-25T18:10:43.134Z,0.90
2019-02-25T18:13:12.460Z,0.87
2019-02-25T18:15:41.082Z,0.90
2019-02-25T18:18:12.017Z,0.90
2019-02-25T18:20:39.289Z,0.90
2019-02-25T18:23:07.867Z,0.70
2019-02-25T18:25:37.676Z,0.70
2019-02-25T18:28:08.400Z,0.90
2019-02-25T18:30:37.605Z,0.97
2019-02-25T18:33:06.110Z,0.73
2019-02-25T18:35:36.344Z,1.10
2019-02-25T18:38:06.754Z,0.80
2019-02-25T18:40:35.930Z,1.00
2019-02-25T18:43:07.117Z,0.87
2019-02-25T18:45:36.170Z,0.77
2019-02-25T18:48:06.256Z,0.70
2019-02-25T18:50:34.569Z,0.80
2019-02-25T18:53:02.806Z,0.80
2019-02-25T18:55:33.539Z,0.73
2019-02-25T18:58:01.006Z,0.90
2019-02-25T19:00:34.989Z,1.07
2019-02-25T19:03:04.792Z,0.80
2019-02-25T19:05:33.294Z,1.00
2019-02-25T19:08:01.977Z,0.80
2019-02-25T19:10:30.290Z,0.90
2019-02-25T19:13:00.810Z,0.70
2019-02-25T19:15:28.675Z,0.77
2019-02-25T19:17:56.987Z,0.97
2019-02-25T19:20:25.298Z,0.80
2019-02-25T19:22:55.659Z,0.80
2019-02-25T19:25:25.702Z,0.77
2019-02-25T19:27:54.372Z,0.83
2019-02-25T19:30:24.824Z,0.80
2019-02-25T19:32:54.324Z,0.80
2019-02-25T19:35:25.783Z,0.80
2019-02-25T19:37:52.922Z,0.90
2019-02-25T19:40:24.334Z,0.90
2019-02-25T19:42:54.244Z,0.80
2019-02-25T19:45:22.497Z,0.90
2019-02-25T19:47:50.739Z,0.90
2019-02-25T19:50:22.630Z,0.80
2019-02-25T19:52:50.872Z,0.80
2019-02-25T19:55:20.632Z,0.60
2019-02-25T19:57:49.081Z,0.83
2019-02-25T20:00:25.693Z,0.90
2019-02-25T20:03:04.777Z,0.90
2019-02-25T20:05:25.027Z,0.87
2019-02-25T20:07:54.762Z,0.70
2019-02-25T20:10:23.186Z,0.77
2019-02-25T20:12:53.195Z,0.60
2019-02-25T20:15:25.520Z,0.90
2019-02-25T20:17:55.262Z,0.70
2019-02-25T20:20:25.313Z,0.70
2019-02-25T20:22:53.558Z,0.90
2019-02-25T20:25:24.525Z,0.70
2019-02-25T20:27:52.770Z,0.90
2019-02-25T20:30:23.622Z,0.70
2019-02-25T20:32:52.700Z,0.90
2019-02-25T20:35:22.228Z,0.87
2019-02-25T20:37:53.009Z,1.00
2019-02-25T20:40:21.796Z,0.87
2019-02-25T20:42:51.227Z,0.90
2019-02-25T20:45:31.018Z,0.80
2019-02-25T20:47:59.691Z,0.67
2019-02-25T20:50:29.463Z,0.70
2019-02-25T20:52:59.143Z,0.73
2019-02-25T20:55:29.308Z,0.87
2019-02-25T20:57:57.623Z,0.83
2019-02-25T21:00:26.025Z,0.70
2019-02-25T21:02:54.275Z,0.60
2019-02-25T21:05:24.697Z,0.70
2019-02-25T21:07:53.428Z,0.90
2019-02-25T21:10:24.455Z,0.70
2019-02-25T21:12:54.716Z,1.10
2019-02-25T21:15:23.881Z,0.60
2019-02-25T21:17:54.365Z,0.90
2019-02-25T21:20:23.665Z,0.80
2019-02-25T21:22:54.803Z,0.90
2019-02-25T21:25:26.438Z,0.83
2019-02-25T21:27:55.190Z,0.70
2019-02-25T21:30:22.925Z,1.00
2019-02-25T21:32:51.960Z,1.07
2019-02-25T21:35:23.476Z,1.10
2019-02-25T21:37:52.833Z,1.07
2019-02-25T21:40:25.057Z,1.10
2019-02-25T21:42:54.414Z,1.13
2019-02-25T21:45:25.101Z,1.00
2019-02-25T21:47:54.603Z,1.17
2019-02-25T21:50:26.289Z,1.00
2019-02-25T21:52:53.441Z,1.00
2019-02-25T21:55:23.752Z,1.10
2019-02-25T21:57:53.067Z,1.13
2019-02-25T22:00:23.142Z,1.10
2019-02-25T22:02:52.671Z,1.20
2019-02-25T22:05:22.006Z,1.10
2019-02-25T22:07:54.747Z,0.90
2019-02-25T22:10:22.666Z,1.20
2019-02-25T22:12:50.890Z,1.20
2019-02-25T22:15:22.325Z,1.10
2019-02-25T22:17:53.180Z,1.10
2019-02-25T22:20:22.629Z,1.07
2019-02-25T22:22:54.443Z,1.00
2019-02-25T22:25:24.292Z,1.10
2019-02-25T22:27:52.526Z,1.00
2019-02-25T22:30:20.818Z,0.93
2019-02-25T22:32:49.113Z,0.90
2019-02-25T22:35:17.351Z,1.00
2019-02-25T22:37:49.326Z,1.30
2019-02-25T22:40:17.229Z,0.93
2019-02-25T22:42:47.862Z,1.10
2019-02-25T22:45:18.887Z,1.10
2019-02-25T22:47:47.242Z,1.00
2019-02-25T22:50:15.493Z,1.10
2019-02-25T22:52:43.713Z,1.00
2019-02-25T22:55:15.147Z,1.03
2019-02-25T22:57:43.922Z,1.10
2019-02-25T23:00:30.070Z,1.10
2019-02-25T23:02:58.308Z,1.00
2019-02-25T23:05:26.551Z,1.00
2019-02-25T23:07:54.819Z,0.90
2019-02-25T23:10:24.186Z,1.00
2019-02-25T23:12:52.790Z,1.10
2019-02-25T23:15:22.824Z,1.03
2019-02-25T23:17:51.158Z,1.10
2019-02-25T23:20:19.480Z,1.07
2019-02-25T23:22:47.709Z,0.97
2019-02-25T23:25:15.954Z,1.00
2019-02-25T23:27:44.473Z,1.00
2019-02-25T23:30:13.853Z,1.00
2019-02-25T23:32:43.053Z,1.07
2019-02-25T23:35:13.658Z,1.00
2019-02-25T23:37:45.128Z,1.10
2019-02-25T23:40:16.780Z,1.10
2019-02-25T23:42:46.668Z,1.00
2019-02-25T23:45:16.049Z,1.00
2019-02-25T23:47:45.230Z,0.90
2019-02-25T23:50:15.142Z,1.00
2019-02-25T23:52:43.385Z,1.20
2019-02-25T23:55:16.533Z,1.10
2019-02-25T23:57:42.425Z,1.00
